Chingozi Airport


Codes: FQTT/TET
Name: Chingozi Airport
City: Tete
Country: Mozambique
Elevation: 525 ft.
Wikipedia:

Photos at Chingozi Airport


   Photos courtesy of SpottingLog. You can add your own sightings and photos by signing up for a free trial today.



No photos found.

Weather at Chingozi Airport


Time (UTC)DescriptionTempratureWindCloud coverageVisibilityPressureHumidity
19-Apr-2024 03:00Clear Sky21°C2 mph, S10%10000m1017hPa97%
19-Apr-2024 06:00Few Clouds22°C4 mph, SE21%10000m1017hPa93%
19-Apr-2024 09:00Broken Clouds27°C7 mph, SE65%10000m1017hPa69%
19-Apr-2024 12:00Overcast Clouds33°C7 mph, SE96%10000m1013hPa45%
19-Apr-2024 15:00Overcast Clouds29°C4 mph, SE99%10000m1013hPa58%
19-Apr-2024 18:00Overcast Clouds27°C4 mph, E98%10000m1015hPa65%
19-Apr-2024 21:00Broken Clouds24°C7 mph, SE73%10000m1016hPa79%
20-Apr-2024 00:00Scattered Clouds22°C4 mph, SE43%10000m1015hPa94%
20-Apr-2024 03:00Scattered Clouds21°C4 mph, S31%10000m1015hPa98%
20-Apr-2024 06:00Broken Clouds23°C4 mph, SE63%10000m1017hPa82%
20-Apr-2024 09:00Overcast Clouds26°C7 mph, SE100%10000m1016hPa69%
20-Apr-2024 12:00Broken Clouds29°C7 mph, E84%10000m1013hPa51%
20-Apr-2024 15:00Clear Sky28°C4 mph, E1%10000m1012hPa57%
20-Apr-2024 18:00Clear Sky22°C4 mph, NE0%10000m1014hPa76%
20-Apr-2024 21:00Clear Sky21°C2 mph, SE0%10000m1015hPa82%
21-Apr-2024 00:00Clear Sky20°C2 mph, SE0%10000m1014hPa85%
21-Apr-2024 03:00Clear Sky19°C2 mph, SE0%10000m1015hPa92%
21-Apr-2024 06:00Clear Sky23°C4 mph, SE0%10000m1016hPa73%
21-Apr-2024 09:00Clear Sky30°C4 mph, SE0%10000m1015hPa45%
21-Apr-2024 12:00Clear Sky33°C4 mph, SE0%10000m1011hPa31%
21-Apr-2024 15:00Clear Sky28°C4 mph, SE0%10000m1011hPa44%
21-Apr-2024 18:00Clear Sky23°C2 mph, E0%10000m1013hPa57%
21-Apr-2024 21:00Clear Sky21°C2 mph, E0%10000m1014hPa61%
22-Apr-2024 00:00Clear Sky19°C2 mph, SE0%10000m1014hPa69%
22-Apr-2024 03:00Clear Sky17°C2 mph, SE0%10000m1015hPa80%
22-Apr-2024 06:00Clear Sky23°C4 mph, SE0%10000m1017hPa65%
22-Apr-2024 09:00Clear Sky30°C4 mph, SE0%10000m1016hPa43%
22-Apr-2024 12:00Clear Sky33°C4 mph, SE0%10000m1012hPa30%
22-Apr-2024 15:00Clear Sky28°C4 mph, SE0%10000m1011hPa43%
22-Apr-2024 18:00Clear Sky22°C2 mph, NE0%10000m1014hPa56%
22-Apr-2024 21:00Clear Sky20°C2 mph, SE0%10000m1015hPa62%
23-Apr-2024 00:00Clear Sky19°C2 mph, SE0%10000m1015hPa70%
23-Apr-2024 03:00Clear Sky17°C2 mph, SE0%10000m1015hPa81%
23-Apr-2024 06:00Clear Sky22°C4 mph, SE0%10000m1017hPa66%
23-Apr-2024 09:00Clear Sky30°C4 mph, SE0%10000m1016hPa43%
23-Apr-2024 12:00Clear Sky33°C4 mph, SE0%10000m1012hPa28%
23-Apr-2024 15:00Clear Sky29°C4 mph, SE0%10000m1012hPa40%
23-Apr-2024 18:00Clear Sky23°C2 mph, E0%10000m1014hPa52%
23-Apr-2024 21:00Clear Sky21°C4 mph, SE2%10000m1016hPa60%
24-Apr-2024 00:00Clear Sky19°C4 mph, SE1%10000m1015hPa81%